Gardi, Georgia
Current Conditions -  °F | °C
As of 12:35 PM on Sunday 23 Nov 2014 (Local Time) from KJES Reporting Station
Overcast Overcast  
Wind Chill: 73°   Ceiling: 600
Heat Index: 73°   Visibility: 10mi
Dew Point: 72°   Wind: 3mph
Humidity: 94%   Direction: 150°SSE
Pressure: 29.93"   Gusts: NA
Location:  31.5041°N, 81.8277°W
Report Text: KJES 231735Z AUTO 15003KT 10SM OVC006 23/22 A2993 RMK AO2
Loading
Personal Weather Stations






























Interactive Weather Map New forecast layout! Learn more

10-Day Weather Forecast

Advertisements
Track Severe Weather on mobile